首页
METAR-TAF:

METAR-TAF

机场 :

香港國際機場

香港, 中华人民共和国

纬度: 22-19N, 经度: 113-55E, 海拔: 9米

当前天气观测

该预报发布于28分钟前的02:00 UTC
风速3节,风向西,在西转西南西北之间变化
温度 28°C
湿度 94%
气压 1003 hPa
能见度10公里或以上
少量云层高于800英尺
散云层高于2500英尺

METAR: VHHH 190200Z 27003KT 240V310 9999 FEW008 SCT025 28/27 Q1003 NOSIG

时间: 10:28 (02:28 UTC)

预报

该预报发布于3小时和28分钟前的23:00 UTC
预报有效从19日的 00点(UTC)到 20日的 06点(UTC)
风速10节,风向西转西南
能见度10公里或以上
少量云层高于1500英尺
散云层高于3000英尺
短暂存在
从 19日的 00点(UTC)到 19日的 06点(UTC)
能見度: 2500
少量云层高于1000英尺, 积雨云.
散云层高于2000英尺
雷暴, 雨, 阵雨
短暂存在
从 19日的 06点(UTC)到 19日的 12点(UTC)
能見度: 4000
少量云层高于1200英尺, 积雨云.
散云层高于2500英尺
阵雨
短暂存在
从 19日的 12点(UTC)到 19日的 24点(UTC)
风速5节,风向多变
短暂存在
从 19日的 18点(UTC)到 19日的 24点(UTC)
能見度: 2500
少量云层高于1000英尺, 积雨云.
散云层高于2000英尺
雷暴, 雨, 阵雨
短暂存在
从 20日的 00点(UTC)到 20日的 06点(UTC)
能見度: 4000
少量云层高于1200英尺, 积雨云.
散云层高于2500英尺
阵雨

TAF: VHHH 182300Z 1900/2006 24010KT 9999 FEW015 SCT030 TX30/1906Z TX30/2006Z TN26/1922Z TEMPO 1900/1906 2500 TSRA SHRA FEW010CB SCT020 TEMPO 1906/1912 4000 SHRA FEW012CB SCT025 TEMPO 1912/1924 VRB05KT TEMPO 1918/1924 2500 TSRA SHRA FEW010CB SCT020 TEMPO 2000/2006 4000 SHRA FEW012CB SCT025

超过4000个机场的气象观测和天气预报(METAR&TAF报告)。

可查询的气象台以黄色和红色小点在地图上表示。

将鼠标移到小点上方,可查看气象台名称。

然后点击查看天气观测和预报。

如需切换地图:点击带黑十字的绿色按钮放大地图;点击带横线的绿色按钮缩小地图;或者点击绿色箭头查看邻近地区的地图。


METAR-TAF: